sensor_id;sensor_type;location;lat;lon;timestamp;temperature;humidity
7167;DHT22;3625;51.762;14.320;2024-03-17T00:02:07;3.10;99.90
7167;DHT22;3625;51.762;14.320;2024-03-17T00:04:34;3.10;99.90
7167;DHT22;3625;51.762;14.320;2024-03-17T00:07:01;3.00;99.90
7167;DHT22;3625;51.762;14.320;2024-03-17T00:09:29;3.00;99.90
7167;DHT22;3625;51.762;14.320;2024-03-17T00:11:57;2.90;99.90
7167;DHT22;3625;51.762;14.320;2024-03-17T00:14:25;2.90;99.90
7167;DHT22;3625;51.762;14.320;2024-03-17T00:16:54;2.90;99.90
7167;DHT22;3625;51.762;14.320;2024-03-17T00:19:20;2.90;99.90
7167;DHT22;3625;51.762;14.320;2024-03-17T00:21:48;2.90;99.90
7167;DHT22;3625;51.762;14.320;2024-03-17T00:24:16;2.90;99.90
7167;DHT22;3625;51.762;14.320;2024-03-17T00:26:45;2.90;99.90
7167;DHT22;3625;51.762;14.320;2024-03-17T00:31:40;2.80;99.90
7167;DHT22;3625;51.762;14.320;2024-03-17T00:34:07;2.70;99.90
7167;DHT22;3625;51.762;14.320;2024-03-17T00:36:35;2.60;99.90
7167;DHT22;3625;51.762;14.320;2024-03-17T00:39:02;4.50;99.90
7167;DHT22;3625;51.762;14.320;2024-03-17T00:41:30;2.60;99.90
7167;DHT22;3625;51.762;14.320;2024-03-17T00:43:58;2.60;99.90
7167;DHT22;3625;51.762;14.320;2024-03-17T00:46:26;2.70;99.90
7167;DHT22;3625;51.762;14.320;2024-03-17T00:48:54;2.80;99.90
7167;DHT22;3625;51.762;14.320;2024-03-17T00:51:22;2.80;99.90
7167;DHT22;3625;51.762;14.320;2024-03-17T00:53:48;2.90;99.90
7167;DHT22;3625;51.762;14.320;2024-03-17T00:56:16;2.80;99.90
7167;DHT22;3625;51.762;14.320;2024-03-17T00:58:43;3.00;99.90
7167;DHT22;3625;51.762;14.320;2024-03-17T01:01:13;2.90;99.90
7167;DHT22;3625;51.762;14.320;2024-03-17T01:03:39;3.00;99.90
7167;DHT22;3625;51.762;14.320;2024-03-17T01:06:07;3.10;99.90
7167;DHT22;3625;51.762;14.320;2024-03-17T01:08:33;3.20;99.90
7167;DHT22;3625;51.762;14.320;2024-03-17T01:11:01;3.10;99.90
7167;DHT22;3625;51.762;14.320;2024-03-17T01:13:29;3.10;99.90
7167;DHT22;3625;51.762;14.320;2024-03-17T01:15:57;3.10;99.90
7167;DHT22;3625;51.762;14.320;2024-03-17T01:18:24;3.20;99.90
7167;DHT22;3625;51.762;14.320;2024-03-17T01:20:52;3.10;99.90
7167;DHT22;3625;51.762;14.320;2024-03-17T01:23:18;3.10;99.90
7167;DHT22;3625;51.762;14.320;2024-03-17T01:25:46;3.00;99.90
7167;DHT22;3625;51.762;14.320;2024-03-17T01:28:12;3.10;99.90
7167;DHT22;3625;51.762;14.320;2024-03-17T01:30:40;3.10;99.90
7167;DHT22;3625;51.762;14.320;2024-03-17T01:33:07;3.00;99.90
7167;DHT22;3625;51.762;14.320;2024-03-17T01:35:36;3.00;99.90
7167;DHT22;3625;51.762;14.320;2024-03-17T01:38:03;3.10;99.90
7167;DHT22;3625;51.762;14.320;2024-03-17T01:40:31;3.00;99.90
7167;DHT22;3625;51.762;14.320;2024-03-17T01:42:57;2.90;99.90
7167;DHT22;3625;51.762;14.320;2024-03-17T01:45:27;2.90;99.90
7167;DHT22;3625;51.762;14.320;2024-03-17T01:47:56;2.90;99.90
7167;DHT22;3625;51.762;14.320;2024-03-17T01:50:26;2.80;99.90
7167;DHT22;3625;51.762;14.320;2024-03-17T01:53:01;2.70;99.90
7167;DHT22;3625;51.762;14.320;2024-03-17T01:55:31;2.70;99.90
7167;DHT22;3625;51.762;14.320;2024-03-17T01:57:59;2.50;99.90
7167;DHT22;3625;51.762;14.320;2024-03-17T02:00:28;2.50;99.90
7167;DHT22;3625;51.762;14.320;2024-03-17T02:02:57;2.50;99.90
7167;DHT22;3625;51.762;14.320;2024-03-17T02:05:24;2.50;99.90
7167;DHT22;3625;51.762;14.320;2024-03-17T02:07:51;2.50;99.90
7167;DHT22;3625;51.762;14.320;2024-03-17T02:10:19;2.40;99.90
7167;DHT22;3625;51.762;14.320;2024-03-17T02:12:47;2.30;99.90
7167;DHT22;3625;51.762;14.320;2024-03-17T02:15:15;2.30;99.90
7167;DHT22;3625;51.762;14.320;2024-03-17T02:17:42;2.20;99.90
7167;DHT22;3625;51.762;14.320;2024-03-17T02:20:10;2.10;99.90
7167;DHT22;3625;51.762;14.320;2024-03-17T02:22:38;2.00;99.90
7167;DHT22;3625;51.762;14.320;2024-03-17T02:25:06;2.00;99.90
7167;DHT22;3625;51.762;14.320;2024-03-17T02:27:34;1.90;99.90
7167;DHT22;3625;51.762;14.320;2024-03-17T02:30:02;1.80;99.90
7167;DHT22;3625;51.762;14.320;2024-03-17T02:32:29;0.90;99.90
7167;DHT22;3625;51.762;14.320;2024-03-17T02:34:56;1.80;99.90
7167;DHT22;3625;51.762;14.320;2024-03-17T02:37:23;1.80;99.90
7167;DHT22;3625;51.762;14.320;2024-03-17T02:39:51;1.70;99.90
7167;DHT22;3625;51.762;14.320;2024-03-17T02:42:18;1.60;99.90
7167;DHT22;3625;51.762;14.320;2024-03-17T02:44:46;0.40;99.90
7167;DHT22;3625;51.762;14.320;2024-03-17T02:47:13;1.60;99.90
7167;DHT22;3625;51.762;14.320;2024-03-17T02:49:41;1.60;99.90
7167;DHT22;3625;51.762;14.320;2024-03-17T02:52:10;1.60;99.90
7167;DHT22;3625;51.762;14.320;2024-03-17T02:54:39;1.70;99.90
7167;DHT22;3625;51.762;14.320;2024-03-17T02:57:08;1.60;99.90
7167;DHT22;3625;51.762;14.320;2024-03-17T02:59:35;1.60;99.90
7167;DHT22;3625;51.762;14.320;2024-03-17T03:02:03;1.60;99.90
7167;DHT22;3625;51.762;14.320;2024-03-17T03:04:31;1.60;99.90
7167;DHT22;3625;51.762;14.320;2024-03-17T03:06:59;1.60;99.90
7167;DHT22;3625;51.762;14.320;2024-03-17T03:09:26;1.50;99.90
7167;DHT22;3625;51.762;14.320;2024-03-17T03:11:58;1.40;99.90
7167;DHT22;3625;51.762;14.320;2024-03-17T03:14:28;1.40;99.90
7167;DHT22;3625;51.762;14.320;2024-03-17T03:16:55;1.40;99.90
7167;DHT22;3625;51.762;14.320;2024-03-17T03:19:23;1.40;99.90
7167;DHT22;3625;51.762;14.320;2024-03-17T03:21:51;1.40;99.90
7167;DHT22;3625;51.762;14.320;2024-03-17T03:24:19;1.40;99.90
7167;DHT22;3625;51.762;14.320;2024-03-17T03:26:46;1.40;99.90
7167;DHT22;3625;51.762;14.320;2024-03-17T03:29:14;1.40;99.90
7167;DHT22;3625;51.762;14.320;2024-03-17T03:31:43;1.30;99.90
7167;DHT22;3625;51.762;14.320;2024-03-17T03:34:11;1.30;99.90
7167;DHT22;3625;51.762;14.320;2024-03-17T03:36:39;1.30;99.90
7167;DHT22;3625;51.762;14.320;2024-03-17T03:39:07;1.30;99.90
7167;DHT22;3625;51.762;14.320;2024-03-17T03:41:38;1.70;99.90
7167;DHT22;3625;51.762;14.320;2024-03-17T03:44:06;1.30;99.90
7167;DHT22;3625;51.762;14.320;2024-03-17T03:46:34;1.30;99.90
7167;DHT22;3625;51.762;14.320;2024-03-17T03:49:02;1.30;99.90
7167;DHT22;3625;51.762;14.320;2024-03-17T03:51:30;1.20;99.90
7167;DHT22;3625;51.762;14.320;2024-03-17T03:53:58;1.20;99.90
7167;DHT22;3625;51.762;14.320;2024-03-17T03:56:26;1.30;99.90
7167;DHT22;3625;51.762;14.320;2024-03-17T03:58:55;1.30;99.90
7167;DHT22;3625;51.762;14.320;2024-03-17T04:01:22;2.70;99.90
7167;DHT22;3625;51.762;14.320;2024-03-17T04:03:50;1.20;99.90
7167;DHT22;3625;51.762;14.320;2024-03-17T04:06:19;1.20;99.90
7167;DHT22;3625;51.762;14.320;2024-03-17T04:08:47;1.20;99.90
7167;DHT22;3625;51.762;14.320;2024-03-17T04:11:14;1.20;99.90
7167;DHT22;3625;51.762;14.320;2024-03-17T04:13:42;1.10;99.90
7167;DHT22;3625;51.762;14.320;2024-03-17T04:16:09;1.10;99.90
7167;DHT22;3625;51.762;14.320;2024-03-17T04:18:38;1.00;99.90
7167;DHT22;3625;51.762;14.320;2024-03-17T04:21:07;1.00;99.90
7167;DHT22;3625;51.762;14.320;2024-03-17T04:23:36;1.00;99.90
7167;DHT22;3625;51.762;14.320;2024-03-17T04:26:04;0.90;99.90
7167;DHT22;3625;51.762;14.320;2024-03-17T04:28:33;1.00;99.90
7167;DHT22;3625;51.762;14.320;2024-03-17T04:31:05;1.10;99.90
7167;DHT22;3625;51.762;14.320;2024-03-17T04:33:34;1.00;99.90
7167;DHT22;3625;51.762;14.320;2024-03-17T04:36:02;1.00;99.90
7167;DHT22;3625;51.762;14.320;2024-03-17T04:38:30;0.80;99.90
7167;DHT22;3625;51.762;14.320;2024-03-17T04:40:59;1.00;99.90
7167;DHT22;3625;51.762;14.320;2024-03-17T04:43:32;1.00;99.90
7167;DHT22;3625;51.762;14.320;2024-03-17T04:46:00;1.00;99.90
7167;DHT22;3625;51.762;14.320;2024-03-17T04:48:30;1.00;99.90
7167;DHT22;3625;51.762;14.320;2024-03-17T04:50:58;1.00;99.90
7167;DHT22;3625;51.762;14.320;2024-03-17T04:53:27;1.00;99.90
7167;DHT22;3625;51.762;14.320;2024-03-17T04:56:01;1.00;99.90
7167;DHT22;3625;51.762;14.320;2024-03-17T04:58:31;1.00;99.90
7167;DHT22;3625;51.762;14.320;2024-03-17T05:01:03;1.00;99.90
7167;DHT22;3625;51.762;14.320;2024-03-17T05:03:32;1.00;99.90
7167;DHT22;3625;51.762;14.320;2024-03-17T05:06:00;1.00;99.90
7167;DHT22;3625;51.762;14.320;2024-03-17T05:08:29;0.90;99.90
7167;DHT22;3625;51.762;14.320;2024-03-17T05:10:57;1.10;99.90
7167;DHT22;3625;51.762;14.320;2024-03-17T05:13:27;1.00;99.90
7167;DHT22;3625;51.762;14.320;2024-03-17T05:15:55;0.90;99.90
7167;DHT22;3625;51.762;14.320;2024-03-17T05:18:23;1.00;99.90
7167;DHT22;3625;51.762;14.320;2024-03-17T05:20:58;1.00;99.90
7167;DHT22;3625;51.762;14.320;2024-03-17T05:23:27;1.00;99.90
7167;DHT22;3625;51.762;14.320;2024-03-17T05:25:55;1.00;99.90
7167;DHT22;3625;51.762;14.320;2024-03-17T05:28:24;1.00;99.90
7167;DHT22;3625;51.762;14.320;2024-03-17T05:30:55;1.00;99.90
7167;DHT22;3625;51.762;14.320;2024-03-17T05:33:25;1.10;99.90
7167;DHT22;3625;51.762;14.320;2024-03-17T05:35:54;1.00;99.90
7167;DHT22;3625;51.762;14.320;2024-03-17T05:38:25;1.10;99.90
7167;DHT22;3625;51.762;14.320;2024-03-17T05:40:57;1.10;99.90
7167;DHT22;3625;51.762;14.320;2024-03-17T05:43:29;1.20;99.90
7167;DHT22;3625;51.762;14.320;2024-03-17T05:46:00;1.20;99.90
7167;DHT22;3625;51.762;14.320;2024-03-17T05:48:29;1.30;99.90
7167;DHT22;3625;51.762;14.320;2024-03-17T05:50:56;1.30;99.90
7167;DHT22;3625;51.762;14.320;2024-03-17T05:53:24;1.40;99.90
7167;DHT22;3625;51.762;14.320;2024-03-17T05:55:51;1.50;99.90
7167;DHT22;3625;51.762;14.320;2024-03-17T05:58:19;1.60;99.90
7167;DHT22;3625;51.762;14.320;2024-03-17T06:00:48;1.60;99.90
7167;DHT22;3625;51.762;14.320;2024-03-17T06:03:15;1.80;99.90
7167;DHT22;3625;51.762;14.320;2024-03-17T06:05:44;1.80;99.90
7167;DHT22;3625;51.762;14.320;2024-03-17T06:08:12;1.80;99.90
7167;DHT22;3625;51.762;14.320;2024-03-17T06:10:43;1.90;99.90
7167;DHT22;3625;51.762;14.320;2024-03-17T06:13:12;2.00;99.90
7167;DHT22;3625;51.762;14.320;2024-03-17T06:15:42;2.00;99.90
7167;DHT22;3625;51.762;14.320;2024-03-17T06:18:13;2.00;99.90
7167;DHT22;3625;51.762;14.320;2024-03-17T06:20:44;2.10;99.90
7167;DHT22;3625;51.762;14.320;2024-03-17T06:23:13;2.20;99.90
7167;DHT22;3625;51.762;14.320;2024-03-17T06:25:42;2.20;99.90
7167;DHT22;3625;51.762;14.320;2024-03-17T06:28:12;2.40;99.90
7167;DHT22;3625;51.762;14.320;2024-03-17T06:30:40;2.40;99.90
7167;DHT22;3625;51.762;14.320;2024-03-17T06:33:10;2.60;99.90
7167;DHT22;3625;51.762;14.320;2024-03-17T06:35:40;2.60;99.90
7167;DHT22;3625;51.762;14.320;2024-03-17T06:38:08;2.70;99.90
7167;DHT22;3625;51.762;14.320;2024-03-17T06:40:36;3.10;99.90
7167;DHT22;3625;51.762;14.320;2024-03-17T06:43:04;2.90;99.90
7167;DHT22;3625;51.762;14.320;2024-03-17T06:45:32;3.00;99.90
7167;DHT22;3625;51.762;14.320;2024-03-17T06:48:00;3.00;99.90
7167;DHT22;3625;51.762;14.320;2024-03-17T06:50:29;3.10;99.90
7167;DHT22;3625;51.762;14.320;2024-03-17T06:52:59;3.20;99.90
7167;DHT22;3625;51.762;14.320;2024-03-17T06:55:27;3.20;99.90
7167;DHT22;3625;51.762;14.320;2024-03-17T06:57:54;3.30;99.90
7167;DHT22;3625;51.762;14.320;2024-03-17T07:00:22;3.40;99.90
7167;DHT22;3625;51.762;14.320;2024-03-17T07:02:51;3.20;99.90
7167;DHT22;3625;51.762;14.320;2024-03-17T07:05:18;3.50;99.90
7167;DHT22;3625;51.762;14.320;2024-03-17T07:07:47;3.60;99.90
7167;DHT22;3625;51.762;14.320;2024-03-17T07:10:15;3.70;99.90
7167;DHT22;3625;51.762;14.320;2024-03-17T07:12:42;3.70;99.90
7167;DHT22;3625;51.762;14.320;2024-03-17T07:15:10;3.80;99.90
7167;DHT22;3625;51.762;14.320;2024-03-17T07:17:38;3.90;99.90
7167;DHT22;3625;51.762;14.320;2024-03-17T07:20:06;3.90;99.90
7167;DHT22;3625;51.762;14.320;2024-03-17T07:22:35;4.00;99.90
7167;DHT22;3625;51.762;14.320;2024-03-17T07:25:04;4.10;99.90
7167;DHT22;3625;51.762;14.320;2024-03-17T07:27:32;4.10;99.90
7167;DHT22;3625;51.762;14.320;2024-03-17T07:30:00;4.20;99.90
7167;DHT22;3625;51.762;14.320;2024-03-17T07:32:27;4.50;99.90
7167;DHT22;3625;51.762;14.320;2024-03-17T07:34:55;4.30;99.90
7167;DHT22;3625;51.762;14.320;2024-03-17T07:37:22;4.30;99.90
7167;DHT22;3625;51.762;14.320;2024-03-17T07:39:50;4.40;99.90
7167;DHT22;3625;51.762;14.320;2024-03-17T07:42:19;4.50;99.90
7167;DHT22;3625;51.762;14.320;2024-03-17T07:44:46;4.50;99.90
7167;DHT22;3625;51.762;14.320;2024-03-17T07:47:14;4.50;99.90
7167;DHT22;3625;51.762;14.320;2024-03-17T07:49:41;4.50;99.90
7167;DHT22;3625;51.762;14.320;2024-03-17T07:52:13;4.70;99.90
7167;DHT22;3625;51.762;14.320;2024-03-17T07:54:41;4.80;99.90
7167;DHT22;3625;51.762;14.320;2024-03-17T07:57:08;4.80;99.90
7167;DHT22;3625;51.762;14.320;2024-03-17T07:59:37;4.90;99.90
7167;DHT22;3625;51.762;14.320;2024-03-17T08:02:05;5.10;99.90
7167;DHT22;3625;51.762;14.320;2024-03-17T08:04:34;5.30;99.90
7167;DHT22;3625;51.762;14.320;2024-03-17T08:07:03;5.10;99.90
7167;DHT22;3625;51.762;14.320;2024-03-17T08:12:06;4.90;99.90
7167;DHT22;3625;51.762;14.320;2024-03-17T08:14:34;5.10;99.90
7167;DHT22;3625;51.762;14.320;2024-03-17T08:17:03;5.40;99.90
7167;DHT22;3625;51.762;14.320;2024-03-17T08:19:33;5.30;99.90
7167;DHT22;3625;51.762;14.320;2024-03-17T08:22:00;5.30;99.90
7167;DHT22;3625;51.762;14.320;2024-03-17T08:24:28;5.50;99.90
7167;DHT22;3625;51.762;14.320;2024-03-17T08:26:56;5.80;99.90
7167;DHT22;3625;51.762;14.320;2024-03-17T08:29:23;5.70;99.90
7167;DHT22;3625;51.762;14.320;2024-03-17T08:31:51;5.60;99.90
7167;DHT22;3625;51.762;14.320;2024-03-17T08:34:20;5.60;99.90
7167;DHT22;3625;51.762;14.320;2024-03-17T08:36:48;5.80;99.90
7167;DHT22;3625;51.762;14.320;2024-03-17T08:39:15;6.00;99.90
7167;DHT22;3625;51.762;14.320;2024-03-17T08:41:42;5.90;99.90
7167;DHT22;3625;51.762;14.320;2024-03-17T08:44:11;5.90;99.90
7167;DHT22;3625;51.762;14.320;2024-03-17T08:46:39;6.10;99.90
7167;DHT22;3625;51.762;14.320;2024-03-17T08:49:06;6.30;99.90
7167;DHT22;3625;51.762;14.320;2024-03-17T08:51:35;6.20;99.90
7167;DHT22;3625;51.762;14.320;2024-03-17T08:54:03;6.10;99.90
7167;DHT22;3625;51.762;14.320;2024-03-17T08:56:30;6.00;99.90
7167;DHT22;3625;51.762;14.320;2024-03-17T08:58:59;5.90;99.90
7167;DHT22;3625;51.762;14.320;2024-03-17T09:01:27;5.90;99.90
7167;DHT22;3625;51.762;14.320;2024-03-17T09:03:54;6.00;99.90
7167;DHT22;3625;51.762;14.320;2024-03-17T09:06:23;6.10;99.90
7167;DHT22;3625;51.762;14.320;2024-03-17T09:08:56;6.10;99.90
7167;DHT22;3625;51.762;14.320;2024-03-17T09:11:23;6.00;99.90
7167;DHT22;3625;51.762;14.320;2024-03-17T09:13:53;5.90;99.90
7167;DHT22;3625;51.762;14.320;2024-03-17T09:16:21;6.10;99.90
7167;DHT22;3625;51.762;14.320;2024-03-17T09:18:50;6.50;99.90
7167;DHT22;3625;51.762;14.320;2024-03-17T09:21:18;6.50;99.90
7167;DHT22;3625;51.762;14.320;2024-03-17T09:23:46;6.50;99.90
7167;DHT22;3625;51.762;14.320;2024-03-17T09:26:15;6.50;99.90
7167;DHT22;3625;51.762;14.320;2024-03-17T09:28:43;6.50;99.90
7167;DHT22;3625;51.762;14.320;2024-03-17T09:31:11;6.50;99.90
7167;DHT22;3625;51.762;14.320;2024-03-17T09:33:39;6.50;99.90
7167;DHT22;3625;51.762;14.320;2024-03-17T09:36:08;6.40;99.90
7167;DHT22;3625;51.762;14.320;2024-03-17T09:38:37;6.40;99.90
7167;DHT22;3625;51.762;14.320;2024-03-17T09:41:06;6.40;99.90
7167;DHT22;3625;51.762;14.320;2024-03-17T09:43:35;6.40;99.90
7167;DHT22;3625;51.762;14.320;2024-03-17T09:46:03;6.30;99.90
7167;DHT22;3625;51.762;14.320;2024-03-17T09:48:32;6.40;99.90
7167;DHT22;3625;51.762;14.320;2024-03-17T09:51:00;6.50;99.90
7167;DHT22;3625;51.762;14.320;2024-03-17T09:53:31;6.60;99.90
7167;DHT22;3625;51.762;14.320;2024-03-17T09:56:03;6.50;99.90
7167;DHT22;3625;51.762;14.320;2024-03-17T09:58:36;6.40;99.90
7167;DHT22;3625;51.762;14.320;2024-03-17T10:01:05;6.20;99.90
7167;DHT22;3625;51.762;14.320;2024-03-17T10:03:43;7.30;99.90
7167;DHT22;3625;51.762;14.320;2024-03-17T10:06:12;6.10;99.90
7167;DHT22;3625;51.762;14.320;2024-03-17T10:08:42;6.20;99.90
7167;DHT22;3625;51.762;14.320;2024-03-17T10:11:11;6.40;99.90
7167;DHT22;3625;51.762;14.320;2024-03-17T10:13:41;6.50;99.90
7167;DHT22;3625;51.762;14.320;2024-03-17T10:16:22;6.40;99.90
7167;DHT22;3625;51.762;14.320;2024-03-17T10:18:51;6.40;99.90
7167;DHT22;3625;51.762;14.320;2024-03-17T10:21:33;6.50;99.90
7167;DHT22;3625;51.762;14.320;2024-03-17T10:24:08;6.80;99.90
7167;DHT22;3625;51.762;14.320;2024-03-17T10:26:47;7.10;99.90
7167;DHT22;3625;51.762;14.320;2024-03-17T10:29:23;7.20;99.90
7167;DHT22;3625;51.762;14.320;2024-03-17T10:31:52;7.40;99.90
7167;DHT22;3625;51.762;14.320;2024-03-17T10:34:22;7.40;99.90
7167;DHT22;3625;51.762;14.320;2024-03-17T10:36:52;7.30;99.90
7167;DHT22;3625;51.762;14.320;2024-03-17T10:39:32;7.70;99.90
7167;DHT22;3625;51.762;14.320;2024-03-17T10:42:04;7.90;99.90
7167;DHT22;3625;51.762;14.320;2024-03-17T10:44:36;7.90;99.90
7167;DHT22;3625;51.762;14.320;2024-03-17T10:47:06;7.90;99.90
7167;DHT22;3625;51.762;14.320;2024-03-17T10:49:38;7.80;99.90
7167;DHT22;3625;51.762;14.320;2024-03-17T10:52:07;7.80;99.90
7167;DHT22;3625;51.762;14.320;2024-03-17T10:54:47;8.10;99.90
7167;DHT22;3625;51.762;14.320;2024-03-17T10:57:26;8.20;99.90
7167;DHT22;3625;51.762;14.320;2024-03-17T11:00:01;8.20;99.90
7167;DHT22;3625;51.762;14.320;2024-03-17T11:02:32;8.10;99.90
7167;DHT22;3625;51.762;14.320;2024-03-17T11:05:03;7.90;99.90
7167;DHT22;3625;51.762;14.320;2024-03-17T11:07:33;7.90;99.90
7167;DHT22;3625;51.762;14.320;2024-03-17T11:10:04;7.90;99.90
7167;DHT22;3625;51.762;14.320;2024-03-17T11:12:44;8.00;99.90
7167;DHT22;3625;51.762;14.320;2024-03-17T11:15:40;7.40;99.90
7167;DHT22;3625;51.762;14.320;2024-03-17T11:18:35;7.40;99.90
7167;DHT22;3625;51.762;14.320;2024-03-17T11:21:06;7.30;99.90
7167;DHT22;3625;51.762;14.320;2024-03-17T11:23:37;7.40;99.90
7167;DHT22;3625;51.762;14.320;2024-03-17T11:26:06;7.40;99.90
7167;DHT22;3625;51.762;14.320;2024-03-17T11:28:48;7.50;99.90
7167;DHT22;3625;51.762;14.320;2024-03-17T11:31:38;7.50;99.90
7167;DHT22;3625;51.762;14.320;2024-03-17T11:34:33;7.60;99.90
7167;DHT22;3625;51.762;14.320;2024-03-17T11:37:06;7.80;99.90
7167;DHT22;3625;51.762;14.320;2024-03-17T11:39:48;7.80;99.90
7167;DHT22;3625;51.762;14.320;2024-03-17T11:42:22;7.70;99.90
7167;DHT22;3625;51.762;14.320;2024-03-17T11:45:02;7.70;99.90
7167;DHT22;3625;51.762;14.320;2024-03-17T11:47:39;7.40;99.90
7167;DHT22;3625;51.762;14.320;2024-03-17T11:50:08;7.30;99.90
7167;DHT22;3625;51.762;14.320;2024-03-17T11:52:37;7.20;99.90
7167;DHT22;3625;51.762;14.320;2024-03-17T11:55:15;7.30;99.90
7167;DHT22;3625;51.762;14.320;2024-03-17T11:57:44;7.40;99.90
7167;DHT22;3625;51.762;14.320;2024-03-17T12:00:20;7.80;99.90
7167;DHT22;3625;51.762;14.320;2024-03-17T12:02:51;8.20;99.90
7167;DHT22;3625;51.762;14.320;2024-03-17T12:05:17;8.20;99.90
7167;DHT22;3625;51.762;14.320;2024-03-17T12:07:46;8.30;99.90
7167;DHT22;3625;51.762;14.320;2024-03-17T12:10:13;8.50;99.90
7167;DHT22;3625;51.762;14.320;2024-03-17T12:12:47;8.90;99.90
7167;DHT22;3625;51.762;14.320;2024-03-17T12:15:17;9.30;99.90
7167;DHT22;3625;51.762;14.320;2024-03-17T12:17:53;9.40;99.90
7167;DHT22;3625;51.762;14.320;2024-03-17T12:20:20;9.60;99.90
7167;DHT22;3625;51.762;14.320;2024-03-17T12:22:49;9.40;99.90
7167;DHT22;3625;51.762;14.320;2024-03-17T12:25:19;9.30;99.90
7167;DHT22;3625;51.762;14.320;2024-03-17T12:27:49;9.70;99.90
7167;DHT22;3625;51.762;14.320;2024-03-17T12:30:16;9.50;99.90
7167;DHT22;3625;51.762;14.320;2024-03-17T12:32:44;9.20;99.90
7167;DHT22;3625;51.762;14.320;2024-03-17T12:35:15;9.00;99.90
7167;DHT22;3625;51.762;14.320;2024-03-17T12:37:44;9.20;99.90
7167;DHT22;3625;51.762;14.320;2024-03-17T12:40:19;9.40;99.90
7167;DHT22;3625;51.762;14.320;2024-03-17T12:42:48;9.40;99.90
7167;DHT22;3625;51.762;14.320;2024-03-17T12:45:19;10.20;99.90
7167;DHT22;3625;51.762;14.320;2024-03-17T12:47:49;10.30;99.90
7167;DHT22;3625;51.762;14.320;2024-03-17T12:50:18;10.20;99.90
7167;DHT22;3625;51.762;14.320;2024-03-17T12:52:53;10.40;99.90
7167;DHT22;3625;51.762;14.320;2024-03-17T12:55:22;10.10;99.90
7167;DHT22;3625;51.762;14.320;2024-03-17T12:58:08;10.00;99.90
7167;DHT22;3625;51.762;14.320;2024-03-17T13:01:13;9.80;99.90
7167;DHT22;3625;51.762;14.320;2024-03-17T13:03:40;10.00;99.90
7167;DHT22;3625;51.762;14.320;2024-03-17T13:06:22;10.50;99.90
7167;DHT22;3625;51.762;14.320;2024-03-17T13:08:51;10.60;99.90
7167;DHT22;3625;51.762;14.320;2024-03-17T13:11:18;10.60;99.90
7167;DHT22;3625;51.762;14.320;2024-03-17T13:13:46;10.50;99.90
7167;DHT22;3625;51.762;14.320;2024-03-17T13:16:14;10.50;99.90
7167;DHT22;3625;51.762;14.320;2024-03-17T13:18:42;10.70;99.90
7167;DHT22;3625;51.762;14.320;2024-03-17T13:21:11;10.80;99.90
7167;DHT22;3625;51.762;14.320;2024-03-17T13:23:38;10.70;99.90
7167;DHT22;3625;51.762;14.320;2024-03-17T13:26:07;9.90;99.90
7167;DHT22;3625;51.762;14.320;2024-03-17T13:28:34;9.40;99.90
7167;DHT22;3625;51.762;14.320;2024-03-17T13:31:02;9.10;99.90
7167;DHT22;3625;51.762;14.320;2024-03-17T13:33:31;9.00;99.90
7167;DHT22;3625;51.762;14.320;2024-03-17T13:38:28;8.70;99.90
7167;DHT22;3625;51.762;14.320;2024-03-17T13:40:56;9.00;99.90
7167;DHT22;3625;51.762;14.320;2024-03-17T13:43:24;9.20;99.90
7167;DHT22;3625;51.762;14.320;2024-03-17T13:45:54;9.40;99.90
7167;DHT22;3625;51.762;14.320;2024-03-17T13:48:21;9.70;99.90
7167;DHT22;3625;51.762;14.320;2024-03-17T13:50:49;9.60;99.90
7167;DHT22;3625;51.762;14.320;2024-03-17T13:53:16;9.50;99.90
7167;DHT22;3625;51.762;14.320;2024-03-17T13:55:45;9.40;99.90
7167;DHT22;3625;51.762;14.320;2024-03-17T13:58:13;9.50;99.90
7167;DHT22;3625;51.762;14.320;2024-03-17T14:00:40;9.60;99.90
7167;DHT22;3625;51.762;14.320;2024-03-17T14:03:09;9.60;99.90
7167;DHT22;3625;51.762;14.320;2024-03-17T14:05:37;9.50;99.90
7167;DHT22;3625;51.762;14.320;2024-03-17T14:08:05;9.40;99.90
7167;DHT22;3625;51.762;14.320;2024-03-17T14:10:33;9.40;99.90
7167;DHT22;3625;51.762;14.320;2024-03-17T14:13:02;9.50;99.90
7167;DHT22;3625;51.762;14.320;2024-03-17T14:15:30;9.30;99.90
7167;DHT22;3625;51.762;14.320;2024-03-17T14:17:58;9.20;99.90
7167;DHT22;3625;51.762;14.320;2024-03-17T14:20:25;9.30;99.90
7167;DHT22;3625;51.762;14.320;2024-03-17T14:22:53;9.40;99.90
7167;DHT22;3625;51.762;14.320;2024-03-17T14:25:23;9.50;99.90
7167;DHT22;3625;51.762;14.320;2024-03-17T14:27:52;9.40;99.90
7167;DHT22;3625;51.762;14.320;2024-03-17T14:30:21;8.90;99.90
7167;DHT22;3625;51.762;14.320;2024-03-17T14:32:48;8.80;99.90
7167;DHT22;3625;51.762;14.320;2024-03-17T14:35:17;8.70;99.90
7167;DHT22;3625;51.762;14.320;2024-03-17T14:37:46;8.70;99.90
7167;DHT22;3625;51.762;14.320;2024-03-17T14:40:15;8.80;99.90
7167;DHT22;3625;51.762;14.320;2024-03-17T14:42:47;8.10;99.90
7167;DHT22;3625;51.762;14.320;2024-03-17T14:45:16;9.10;99.90
7167;DHT22;3625;51.762;14.320;2024-03-17T14:47:46;9.10;99.90
7167;DHT22;3625;51.762;14.320;2024-03-17T14:50:13;8.80;99.90
7167;DHT22;3625;51.762;14.320;2024-03-17T14:52:42;8.80;99.90
7167;DHT22;3625;51.762;14.320;2024-03-17T14:55:11;8.90;99.90
7167;DHT22;3625;51.762;14.320;2024-03-17T14:57:39;8.90;99.90
7167;DHT22;3625;51.762;14.320;2024-03-17T15:00:08;8.90;99.90
7167;DHT22;3625;51.762;14.320;2024-03-17T15:02:42;8.90;99.90
7167;DHT22;3625;51.762;14.320;2024-03-17T15:05:13;8.80;99.90
7167;DHT22;3625;51.762;14.320;2024-03-17T15:07:41;8.70;99.90
7167;DHT22;3625;51.762;14.320;2024-03-17T15:10:09;8.80;99.90
7167;DHT22;3625;51.762;14.320;2024-03-17T15:12:38;9.20;99.90
7167;DHT22;3625;51.762;14.320;2024-03-17T15:15:09;9.30;99.90
7167;DHT22;3625;51.762;14.320;2024-03-17T15:17:39;9.50;99.90
7167;DHT22;3625;51.762;14.320;2024-03-17T15:20:07;9.60;99.90
7167;DHT22;3625;51.762;14.320;2024-03-17T15:22:44;9.60;99.90
7167;DHT22;3625;51.762;14.320;2024-03-17T15:25:12;9.40;99.90
7167;DHT22;3625;51.762;14.320;2024-03-17T15:27:40;9.20;99.90
7167;DHT22;3625;51.762;14.320;2024-03-17T15:30:12;8.90;99.90
7167;DHT22;3625;51.762;14.320;2024-03-17T15:32:41;8.80;99.90
7167;DHT22;3625;51.762;14.320;2024-03-17T15:35:10;8.70;99.90
7167;DHT22;3625;51.762;14.320;2024-03-17T15:37:39;8.60;99.90
7167;DHT22;3625;51.762;14.320;2024-03-17T15:40:10;8.50;99.90
7167;DHT22;3625;51.762;14.320;2024-03-17T15:42:43;8.40;99.90
7167;DHT22;3625;51.762;14.320;2024-03-17T15:45:12;8.40;99.90
7167;DHT22;3625;51.762;14.320;2024-03-17T15:47:40;8.70;99.90
7167;DHT22;3625;51.762;14.320;2024-03-17T15:50:08;8.30;99.90
7167;DHT22;3625;51.762;14.320;2024-03-17T15:52:36;8.30;99.90
7167;DHT22;3625;51.762;14.320;2024-03-17T15:55:05;8.30;99.90
7167;DHT22;3625;51.762;14.320;2024-03-17T15:57:35;8.20;99.90
7167;DHT22;3625;51.762;14.320;2024-03-17T16:00:04;8.10;99.90
7167;DHT22;3625;51.762;14.320;2024-03-17T16:02:40;8.10;99.90
7167;DHT22;3625;51.762;14.320;2024-03-17T16:05:13;7.90;99.90
7167;DHT22;3625;51.762;14.320;2024-03-17T16:07:43;7.90;99.90
7167;DHT22;3625;51.762;14.320;2024-03-17T16:10:16;7.90;99.90
7167;DHT22;3625;51.762;14.320;2024-03-17T16:12:49;7.80;99.90
7167;DHT22;3625;51.762;14.320;2024-03-17T16:15:17;7.80;99.90
7167;DHT22;3625;51.762;14.320;2024-03-17T16:17:46;7.70;99.90
7167;DHT22;3625;51.762;14.320;2024-03-17T16:23:27;7.60;99.90
7167;DHT22;3625;51.762;14.320;2024-03-17T16:25:56;7.40;99.90
7167;DHT22;3625;51.762;14.320;2024-03-17T16:28:26;7.40;99.90